sensor_id;sensor_type;location;lat;lon;timestamp;pressure;altitude;pressure_sealevel;temperature;humidity
21433;BME280;18592;49.708;10.900;2023-04-08T00:01:40;98844.69;;;10.47;40.69
21433;BME280;18592;49.708;10.900;2023-04-08T00:03:41;98839.72;;;10.44;40.64
21433;BME280;18592;49.708;10.900;2023-04-08T00:05:43;98837.47;;;10.41;40.44
21433;BME280;18592;49.708;10.900;2023-04-08T00:07:45;98838.53;;;10.40;40.58
21433;BME280;18592;49.708;10.900;2023-04-08T00:09:49;98837.13;;;10.38;40.72
21433;BME280;18592;49.708;10.900;2023-04-08T00:11:51;98843.31;;;10.33;40.77
21433;BME280;18592;49.708;10.900;2023-04-08T00:13:53;98837.00;;;10.33;40.65
21433;BME280;18592;49.708;10.900;2023-04-08T00:15:55;98840.00;;;10.31;40.65
21433;BME280;18592;49.708;10.900;2023-04-08T00:17:56;98844.25;;;10.27;40.59
21433;BME280;18592;49.708;10.900;2023-04-08T00:19:58;98842.03;;;10.24;41.31
21433;BME280;18592;49.708;10.900;2023-04-08T00:21:59;98843.09;;;10.23;40.80
21433;BME280;18592;49.708;10.900;2023-04-08T00:24:04;98845.25;;;10.21;40.78
21433;BME280;18592;49.708;10.900;2023-04-08T00:26:05;98843.81;;;10.18;41.20
21433;BME280;18592;49.708;10.900;2023-04-08T00:28:07;98846.19;;;10.15;41.07
21433;BME280;18592;49.708;10.900;2023-04-08T00:30:12;98855.44;;;10.14;40.96
21433;BME280;18592;49.708;10.900;2023-04-08T00:32:13;98855.31;;;10.09;41.17
21433;BME280;18592;49.708;10.900;2023-04-08T00:34:15;98849.25;;;10.07;40.95
21433;BME280;18592;49.708;10.900;2023-04-08T00:36:16;98854.13;;;10.05;41.04
21433;BME280;18592;49.708;10.900;2023-04-08T00:38:19;98854.00;;;10.00;41.05
21433;BME280;18592;49.708;10.900;2023-04-08T00:40:21;98855.31;;;9.97;41.18
21433;BME280;18592;49.708;10.900;2023-04-08T00:42:22;98856.63;;;9.95;41.24
21433;BME280;18592;49.708;10.900;2023-04-08T00:44:24;98857.09;;;9.92;40.97
21433;BME280;18592;49.708;10.900;2023-04-08T00:46:26;98860.91;;;9.91;41.07
21433;BME280;18592;49.708;10.900;2023-04-08T00:48:30;98852.63;;;9.86;41.02
21433;BME280;18592;49.708;10.900;2023-04-08T00:50:32;98858.81;;;9.81;41.27
21433;BME280;18592;49.708;10.900;2023-04-08T00:52:34;98851.94;;;9.79;41.34
21433;BME280;18592;49.708;10.900;2023-04-08T00:54:36;98857.84;;;9.76;41.03
21433;BME280;18592;49.708;10.900;2023-04-08T00:56:38;98856.66;;;9.72;41.24
21433;BME280;18592;49.708;10.900;2023-04-08T00:58:40;98857.75;;;9.71;41.31
21433;BME280;18592;49.708;10.900;2023-04-08T01:00:48;98858.22;;;9.68;41.43
21433;BME280;18592;49.708;10.900;2023-04-08T01:03:10;98857.63;;;9.66;41.41
21433;BME280;18592;49.708;10.900;2023-04-08T01:05:29;98861.88;;;9.62;41.36
21433;BME280;18592;49.708;10.900;2023-04-08T01:07:44;98859.41;;;9.60;41.28
21433;BME280;18592;49.708;10.900;2023-04-08T01:09:54;98857.97;;;9.57;41.50
21433;BME280;18592;49.708;10.900;2023-04-08T01:11:57;98857.59;;;9.54;41.51
21433;BME280;18592;49.708;10.900;2023-04-08T01:14:04;98857.84;;;9.52;41.79
21433;BME280;18592;49.708;10.900;2023-04-08T01:16:10;98859.75;;;9.52;41.22
21433;BME280;18592;49.708;10.900;2023-04-08T01:18:19;98860.59;;;9.52;41.37
21433;BME280;18592;49.708;10.900;2023-04-08T01:20:26;98862.72;;;9.50;41.83
21433;BME280;18592;49.708;10.900;2023-04-08T01:22:45;98861.31;;;9.48;41.55
21433;BME280;18592;49.708;10.900;2023-04-08T01:24:59;98862.59;;;9.45;41.95
21433;BME280;18592;49.708;10.900;2023-04-08T01:27:04;98863.44;;;9.46;41.73
21433;BME280;18592;49.708;10.900;2023-04-08T01:29:07;98860.72;;;9.46;42.06
21433;BME280;18592;49.708;10.900;2023-04-08T01:31:09;98862.59;;;9.45;41.64
21433;BME280;18592;49.708;10.900;2023-04-08T01:33:13;98868.88;;;9.46;41.85
21433;BME280;18592;49.708;10.900;2023-04-08T01:35:15;98868.25;;;9.44;41.63
21433;BME280;18592;49.708;10.900;2023-04-08T01:37:17;98864.13;;;9.41;41.95
21433;BME280;18592;49.708;10.900;2023-04-08T01:39:19;98863.53;;;9.39;41.73
21433;BME280;18592;49.708;10.900;2023-04-08T01:41:21;98869.22;;;9.38;41.85
21433;BME280;18592;49.708;10.900;2023-04-08T01:43:25;98857.50;;;9.37;42.24
21433;BME280;18592;49.708;10.900;2023-04-08T01:45:32;98855.63;;;9.38;42.07
21433;BME280;18592;49.708;10.900;2023-04-08T01:47:37;98861.28;;;9.36;42.13
21433;BME280;18592;49.708;10.900;2023-04-08T01:49:39;98859.38;;;9.37;42.12
21433;BME280;18592;49.708;10.900;2023-04-08T01:51:43;98859.63;;;9.35;42.36
21433;BME280;18592;49.708;10.900;2023-04-08T01:53:46;98859.63;;;9.35;42.68
21433;BME280;18592;49.708;10.900;2023-04-08T01:55:51;98858.81;;;9.35;42.52
21433;BME280;18592;49.708;10.900;2023-04-08T01:57:58;98861.53;;;9.35;42.62
21433;BME280;18592;49.708;10.900;2023-04-08T02:00:08;98858.56;;;9.36;42.77
21433;BME280;18592;49.708;10.900;2023-04-08T02:02:21;98863.53;;;9.39;42.37
21433;BME280;18592;49.708;10.900;2023-04-08T02:04:25;98871.94;;;9.38;42.64
21433;BME280;18592;49.708;10.900;2023-04-08T02:06:30;98868.97;;;9.39;42.74
21433;BME280;18592;49.708;10.900;2023-04-08T02:08:33;98870.06;;;9.38;42.71
21433;BME280;18592;49.708;10.900;2023-04-08T02:10:36;98869.56;;;9.41;42.66
21433;BME280;18592;49.708;10.900;2023-04-08T02:12:38;98873.13;;;9.42;42.69
21433;BME280;18592;49.708;10.900;2023-04-08T02:14:43;98867.47;;;9.43;42.37
21433;BME280;18592;49.708;10.900;2023-04-08T02:16:52;98869.94;;;9.45;42.51
21433;BME280;18592;49.708;10.900;2023-04-08T02:18:57;98876.19;;;9.45;42.87
21433;BME280;18592;49.708;10.900;2023-04-08T02:21:12;98871.59;;;9.46;43.03
21433;BME280;18592;49.708;10.900;2023-04-08T02:23:18;98865.06;;;9.47;42.69
21433;BME280;18592;49.708;10.900;2023-04-08T02:25:23;98870.50;;;9.47;42.81
21433;BME280;18592;49.708;10.900;2023-04-08T02:27:26;98875.50;;;9.50;42.81
21433;BME280;18592;49.708;10.900;2023-04-08T02:29:30;98875.25;;;9.51;42.85
21433;BME280;18592;49.708;10.900;2023-04-08T02:31:33;98870.41;;;9.53;42.64
21433;BME280;18592;49.708;10.900;2023-04-08T02:33:35;98868.75;;;9.52;42.75
21433;BME280;18592;49.708;10.900;2023-04-08T02:35:40;98871.47;;;9.52;43.02
21433;BME280;18592;49.708;10.900;2023-04-08T02:37:44;98874.19;;;9.52;42.91
21433;BME280;18592;49.708;10.900;2023-04-08T02:39:46;98880.47;;;9.53;42.53
21433;BME280;18592;49.708;10.900;2023-04-08T02:41:50;98883.31;;;9.58;42.67
21433;BME280;18592;49.708;10.900;2023-04-08T02:43:51;98883.63;;;9.62;42.58
21433;BME280;18592;49.708;10.900;2023-04-08T02:45:58;98886.38;;;9.62;42.64
21433;BME280;18592;49.708;10.900;2023-04-08T02:48:04;98884.72;;;9.61;42.28
21433;BME280;18592;49.708;10.900;2023-04-08T02:50:09;98884.47;;;9.62;42.77
21433;BME280;18592;49.708;10.900;2023-04-08T02:52:13;98892.41;;;9.64;42.74
21433;BME280;18592;49.708;10.900;2023-04-08T02:54:15;98884.84;;;9.66;42.32
21433;BME280;18592;49.708;10.900;2023-04-08T02:56:17;98881.28;;;9.65;42.85
21433;BME280;18592;49.708;10.900;2023-04-08T02:58:18;98881.03;;;9.67;42.24
21433;BME280;18592;49.708;10.900;2023-04-08T03:00:20;98879.41;;;9.66;42.65
21433;BME280;18592;49.708;10.900;2023-04-08T03:02:22;98883.53;;;9.68;42.46
21433;BME280;18592;49.708;10.900;2023-04-08T03:04:24;98886.00;;;9.70;42.45
21433;BME280;18592;49.708;10.900;2023-04-08T03:06:25;98884.38;;;9.69;42.29
21433;BME280;18592;49.708;10.900;2023-04-08T03:08:27;98883.28;;;9.70;42.16
21433;BME280;18592;49.708;10.900;2023-04-08T03:10:29;98887.69;;;9.71;42.24
21433;BME280;18592;49.708;10.900;2023-04-08T03:12:31;98886.00;;;9.70;42.70
21433;BME280;18592;49.708;10.900;2023-04-08T03:14:33;98894.19;;;9.70;42.50
21433;BME280;18592;49.708;10.900;2023-04-08T03:16:35;98887.69;;;9.71;42.29
21433;BME280;18592;49.708;10.900;2023-04-08T03:18:36;98890.41;;;9.71;42.49
21433;BME280;18592;49.708;10.900;2023-04-08T03:20:39;98893.97;;;9.71;42.27
21433;BME280;18592;49.708;10.900;2023-04-08T03:22:40;98890.41;;;9.71;42.28
21433;BME280;18592;49.708;10.900;2023-04-08T03:24:43;98889.56;;;9.70;42.47
21433;BME280;18592;49.708;10.900;2023-04-08T03:26:45;98887.69;;;9.71;42.42
21433;BME280;18592;49.708;10.900;2023-04-08T03:28:46;98897.75;;;9.70;42.19
21433;BME280;18592;49.708;10.900;2023-04-08T03:30:48;98902.34;;;9.70;42.36
21433;BME280;18592;49.708;10.900;2023-04-08T03:32:53;98888.97;;;9.68;42.58
21433;BME280;18592;49.708;10.900;2023-04-08T03:34:54;98899.03;;;9.68;42.87
21433;BME280;18592;49.708;10.900;2023-04-08T03:36:56;98904.47;;;9.68;42.86
21433;BME280;18592;49.708;10.900;2023-04-08T03:38:57;98899.63;;;9.70;42.23
21433;BME280;18592;49.708;10.900;2023-04-08T03:40:59;98897.16;;;9.68;42.20
21433;BME280;18592;49.708;10.900;2023-04-08T03:43:01;98897.75;;;9.70;42.46
21433;BME280;18592;49.708;10.900;2023-04-08T03:45:02;98902.34;;;9.70;42.18
21433;BME280;18592;49.708;10.900;2023-04-08T03:47:04;98904.00;;;9.71;42.17
21433;BME280;18592;49.708;10.900;2023-04-08T03:49:11;98911.34;;;9.70;42.61
21433;BME280;18592;49.708;10.900;2023-04-08T03:51:13;98915.38;;;9.68;42.48
21433;BME280;18592;49.708;10.900;2023-04-08T03:53:20;98907.19;;;9.68;42.08
21433;BME280;18592;49.708;10.900;2023-04-08T03:55:22;98913.47;;;9.68;42.77
21433;BME280;18592;49.708;10.900;2023-04-08T03:57:23;98903.66;;;9.67;42.70
21433;BME280;18592;49.708;10.900;2023-04-08T03:59:31;98907.44;;;9.66;42.84
21433;BME280;18592;49.708;10.900;2023-04-08T04:01:34;98908.25;;;9.67;42.17
21433;BME280;18592;49.708;10.900;2023-04-08T04:03:35;98911.81;;;9.67;42.57
21433;BME280;18592;49.708;10.900;2023-04-08T04:05:40;98907.66;;;9.65;42.44
21433;BME280;18592;49.708;10.900;2023-04-08T04:07:41;98910.38;;;9.65;42.52
21433;BME280;18592;49.708;10.900;2023-04-08T04:09:43;98915.25;;;9.63;42.38
21433;BME280;18592;49.708;10.900;2023-04-08T04:11:44;98917.13;;;9.62;42.36
21433;BME280;18592;49.708;10.900;2023-04-08T04:13:46;98921.75;;;9.62;42.34
21433;BME280;18592;49.708;10.900;2023-04-08T04:15:48;98916.31;;;9.62;42.34
21433;BME280;18592;49.708;10.900;2023-04-08T04:17:50;98909.22;;;9.61;42.65
21433;BME280;18592;49.708;10.900;2023-04-08T04:19:52;98918.44;;;9.59;42.30
21433;BME280;18592;49.708;10.900;2023-04-08T04:21:56;98916.78;;;9.58;42.35
21433;BME280;18592;49.708;10.900;2023-04-08T04:23:58;98921.16;;;9.59;42.58
21433;BME280;18592;49.708;10.900;2023-04-08T04:25:59;98911.34;;;9.58;42.76
21433;BME280;18592;49.708;10.900;2023-04-08T04:28:01;98913.47;;;9.56;42.45
21433;BME280;18592;49.708;10.900;2023-04-08T04:30:09;98915.13;;;9.57;42.32
21433;BME280;18592;49.708;10.900;2023-04-08T04:32:10;98921.03;;;9.54;43.06
21433;BME280;18592;49.708;10.900;2023-04-08T04:34:12;98920.81;;;9.56;42.10
21433;BME280;18592;49.708;10.900;2023-04-08T04:36:14;98929.78;;;9.56;42.63
21433;BME280;18592;49.708;10.900;2023-04-08T04:38:16;98928.16;;;9.55;42.56
21433;BME280;18592;49.708;10.900;2023-04-08T04:40:21;98921.88;;;9.55;42.94
21433;BME280;18592;49.708;10.900;2023-04-08T04:42:22;98926.84;;;9.58;42.92
21433;BME280;18592;49.708;10.900;2023-04-08T04:44:24;98936.06;;;9.57;42.90
21433;BME280;18592;49.708;10.900;2023-04-08T04:46:25;98932.03;;;9.59;43.02
21433;BME280;18592;49.708;10.900;2023-04-08T04:48:27;98933.72;;;9.61;42.86
21433;BME280;18592;49.708;10.900;2023-04-08T04:50:29;98938.06;;;9.62;42.71
21433;BME280;18592;49.708;10.900;2023-04-08T04:52:30;98935.34;;;9.62;43.24
21433;BME280;18592;49.708;10.900;2023-04-08T04:54:32;98932.63;;;9.62;43.00
21433;BME280;18592;49.708;10.900;2023-04-08T04:56:33;98933.72;;;9.61;43.08
21433;BME280;18592;49.708;10.900;2023-04-08T04:58:35;98937.50;;;9.59;42.92
21433;BME280;18592;49.708;10.900;2023-04-08T05:00:37;98935.84;;;9.58;42.99
21433;BME280;18592;49.708;10.900;2023-04-08T05:02:38;98938.56;;;9.58;43.20
21433;BME280;18592;49.708;10.900;2023-04-08T05:04:40;98940.22;;;9.59;42.96
21433;BME280;18592;49.708;10.900;2023-04-08T05:06:42;98942.09;;;9.59;42.89
21433;BME280;18592;49.708;10.900;2023-04-08T05:08:44;98948.38;;;9.59;43.05
21433;BME280;18592;49.708;10.900;2023-04-08T05:10:45;98944.22;;;9.57;43.20
21433;BME280;18592;49.708;10.900;2023-04-08T05:12:47;98940.44;;;9.58;42.88
21433;BME280;18592;49.708;10.900;2023-04-08T05:14:49;98940.66;;;9.56;43.13
21433;BME280;18592;49.708;10.900;2023-04-08T05:16:50;98949.34;;;9.53;43.14
21433;BME280;18592;49.708;10.900;2023-04-08T05:18:52;98958.09;;;9.55;43.21
21433;BME280;18592;49.708;10.900;2023-04-08T05:20:53;98951.34;;;9.58;43.40
21433;BME280;18592;49.708;10.900;2023-04-08T05:22:55;98960.34;;;9.58;43.01
21433;BME280;18592;49.708;10.900;2023-04-08T05:24:57;98958.91;;;9.56;43.17
21433;BME280;18592;49.708;10.900;2023-04-08T05:27:05;98960.81;;;9.55;43.50
21433;BME280;18592;49.708;10.900;2023-04-08T05:29:07;98957.00;;;9.56;42.97
21433;BME280;18592;49.708;10.900;2023-04-08T05:31:09;98955.38;;;9.55;43.35
21433;BME280;18592;49.708;10.900;2023-04-08T05:33:12;98966.25;;;9.55;43.09
21433;BME280;18592;49.708;10.900;2023-04-08T05:35:13;98972.53;;;9.56;43.12
21433;BME280;18592;49.708;10.900;2023-04-08T05:37:15;98968.00;;;9.62;43.09
21433;BME280;18592;49.708;10.900;2023-04-08T05:39:17;98959.38;;;9.65;43.33
21433;BME280;18592;49.708;10.900;2023-04-08T05:41:19;98967.53;;;9.65;43.34
21433;BME280;18592;49.708;10.900;2023-04-08T05:43:21;98966.25;;;9.67;43.20
21433;BME280;18592;49.708;10.900;2023-04-08T05:45:23;98969.81;;;9.68;43.14
21433;BME280;18592;49.708;10.900;2023-04-08T05:47:27;98973.13;;;9.70;42.97
21433;BME280;18592;49.708;10.900;2023-04-08T05:49:32;98982.94;;;9.71;43.20
21433;BME280;18592;49.708;10.900;2023-04-08T05:51:36;98989.81;;;9.73;42.96
21433;BME280;18592;49.708;10.900;2023-04-08T05:53:38;98984.50;;;9.78;43.14
21433;BME280;18592;49.708;10.900;2023-04-08T05:55:40;98978.22;;;9.78;42.87
21433;BME280;18592;49.708;10.900;2023-04-08T05:57:42;98984.25;;;9.80;43.34
21433;BME280;18592;49.708;10.900;2023-04-08T05:59:44;98993.25;;;9.80;43.54
21433;BME280;18592;49.708;10.900;2023-04-08T06:01:48;98994.91;;;9.81;43.16
21433;BME280;18592;49.708;10.900;2023-04-08T06:03:50;98987.81;;;9.80;43.23
21433;BME280;18592;49.708;10.900;2023-04-08T06:05:53;98994.31;;;9.79;42.98
21433;BME280;18592;49.708;10.900;2023-04-08T06:07:58;98992.66;;;9.78;43.22
21433;BME280;18592;49.708;10.900;2023-04-08T06:10:00;99002.00;;;9.82;43.48
21433;BME280;18592;49.708;10.900;2023-04-08T06:12:02;99007.22;;;9.84;43.38
21433;BME280;18592;49.708;10.900;2023-04-08T06:14:03;99009.84;;;9.90;43.10
21433;BME280;18592;49.708;10.900;2023-04-08T06:16:12;99000.72;;;9.96;43.32
21433;BME280;18592;49.708;10.900;2023-04-08T06:18:15;99004.63;;;10.00;43.33
21433;BME280;18592;49.708;10.900;2023-04-08T06:20:17;99006.31;;;10.01;43.57
21433;BME280;18592;49.708;10.900;2023-04-08T06:22:19;99009.25;;;10.00;43.65
21433;BME280;18592;49.708;10.900;2023-04-08T06:24:20;99007.94;;;10.02;43.68
21433;BME280;18592;49.708;10.900;2023-04-08T06:26:21;99000.59;;;10.03;43.20
21433;BME280;18592;49.708;10.900;2023-04-08T06:28:31;99009.94;;;10.07;43.51
21433;BME280;18592;49.708;10.900;2023-04-08T06:30:33;99009.72;;;10.08;43.59
21433;BME280;18592;49.708;10.900;2023-04-08T06:32:34;99010.09;;;10.12;43.37
21433;BME280;18592;49.708;10.900;2023-04-08T06:34:36;99008.56;;;10.16;43.55
21433;BME280;18592;49.708;10.900;2023-04-08T06:36:38;99011.31;;;10.16;43.67
21433;BME280;18592;49.708;10.900;2023-04-08T06:38:40;99017.91;;;10.20;43.53
21433;BME280;18592;49.708;10.900;2023-04-08T06:40:41;99021.22;;;10.22;43.54
21433;BME280;18592;49.708;10.900;2023-04-08T06:42:48;99025.03;;;10.21;43.58
21433;BME280;18592;49.708;10.900;2023-04-08T06:45:03;99032.63;;;10.19;43.71
21433;BME280;18592;49.708;10.900;2023-04-08T06:47:05;99029.41;;;10.22;44.14
21433;BME280;18592;49.708;10.900;2023-04-08T06:49:06;99030.50;;;10.21;43.69
21433;BME280;18592;49.708;10.900;2023-04-08T06:51:08;99039.63;;;10.27;43.94
21433;BME280;18592;49.708;10.900;2023-04-08T06:53:09;99042.69;;;10.30;43.96
21433;BME280;18592;49.708;10.900;2023-04-08T06:55:11;99039.38;;;10.28;44.38
21433;BME280;18592;49.708;10.900;2023-04-08T06:57:14;99037.47;;;10.29;44.36
21433;BME280;18592;49.708;10.900;2023-04-08T06:59:18;99036.38;;;10.30;44.12
21433;BME280;18592;49.708;10.900;2023-04-08T07:01:19;99036.75;;;10.33;44.12
21433;BME280;18592;49.708;10.900;2023-04-08T07:03:22;99038.53;;;10.39;44.00
21433;BME280;18592;49.708;10.900;2023-04-08T07:05:23;99033.94;;;10.40;43.97
21433;BME280;18592;49.708;10.900;2023-04-08T07:07:25;99045.63;;;10.40;44.03
21433;BME280;18592;49.708;10.900;2023-04-08T07:09:27;99048.97;;;10.42;44.30
21433;BME280;18592;49.708;10.900;2023-04-08T07:11:28;99046.25;;;10.42;43.95
21433;BME280;18592;49.708;10.900;2023-04-08T07:13:30;99052.88;;;10.46;44.44
21433;BME280;18592;49.708;10.900;2023-04-08T07:15:31;99053.44;;;10.48;44.76
21433;BME280;18592;49.708;10.900;2023-04-08T07:17:33;99047.78;;;10.50;44.36
21433;BME280;18592;49.708;10.900;2023-04-08T07:19:38;99050.25;;;10.51;44.53
21433;BME280;18592;49.708;10.900;2023-04-08T07:21:41;99049.19;;;10.52;44.55
21433;BME280;18592;49.708;10.900;2023-04-08T07:23:47;99054.16;;;10.55;44.72
21433;BME280;18592;49.708;10.900;2023-04-08T07:25:51;99057.38;;;10.52;44.92
21433;BME280;18592;49.708;10.900;2023-04-08T07:27:57;99055.81;;;10.56;44.79
21433;BME280;18592;49.708;10.900;2023-04-08T07:29:58;99057.00;;;10.60;44.82
21433;BME280;18592;49.708;10.900;2023-04-08T07:32:00;99061.13;;;10.63;44.38
21433;BME280;18592;49.708;10.900;2023-04-08T07:34:05;99069.94;;;10.65;45.01
21433;BME280;18592;49.708;10.900;2023-04-08T07:36:13;99064.22;;;10.66;45.10
21433;BME280;18592;49.708;10.900;2023-04-08T07:38:15;99066.94;;;10.66;44.89
21433;BME280;18592;49.708;10.900;2023-04-08T07:40:17;99068.94;;;10.71;44.77
21433;BME280;18592;49.708;10.900;2023-04-08T07:42:20;99070.38;;;10.73;44.91
21433;BME280;18592;49.708;10.900;2023-04-08T07:44:24;99069.06;;;10.76;44.78
21433;BME280;18592;49.708;10.900;2023-04-08T07:46:26;99066.91;;;10.78;44.96
21433;BME280;18592;49.708;10.900;2023-04-08T07:48:28;99067.53;;;10.80;44.99
21433;BME280;18592;49.708;10.900;2023-04-08T07:50:30;99076.03;;;10.83;44.86
21433;BME280;18592;49.708;10.900;2023-04-08T07:52:33;99076.31;;;10.82;44.86
21433;BME280;18592;49.708;10.900;2023-04-08T07:54:34;99080.44;;;10.84;44.77
21433;BME280;18592;49.708;10.900;2023-04-08T07:56:36;99076.03;;;10.83;44.91
21433;BME280;18592;49.708;10.900;2023-04-08T07:58:43;99076.63;;;10.85;44.75
21433;BME280;18592;49.708;10.900;2023-04-08T08:00:44;99079.13;;;10.87;44.70
21433;BME280;18592;49.708;10.900;2023-04-08T08:02:49;99079.97;;;10.88;44.57
21433;BME280;18592;49.708;10.900;2023-04-08T08:04:53;99080.56;;;10.90;44.68
21433;BME280;18592;49.708;10.900;2023-04-08T08:06:54;99082.81;;;10.93;45.06
21433;BME280;18592;49.708;10.900;2023-04-08T08:08:56;99096.78;;;10.96;44.91
21433;BME280;18592;49.708;10.900;2023-04-08T08:10:58;99092.16;;;10.97;45.00
21433;BME280;18592;49.708;10.900;2023-04-08T08:13:01;99091.09;;;10.98;44.99
21433;BME280;18592;49.708;10.900;2023-04-08T08:15:05;99086.22;;;11.00;44.82
21433;BME280;18592;49.708;10.900;2023-04-08T08:17:06;99083.81;;;11.03;44.89
21433;BME280;18592;49.708;10.900;2023-04-08T08:19:08;99093.31;;;11.01;44.86
21433;BME280;18592;49.708;10.900;2023-04-08T08:21:10;99091.69;;;11.00;44.80
21433;BME280;18592;49.708;10.900;2023-04-08T08:23:11;99090.38;;;11.02;44.95
21433;BME280;18592;49.708;10.900;2023-04-08T08:25:16;99088.47;;;11.03;44.90
21433;BME280;18592;49.708;10.900;2023-04-08T08:27:20;99093.94;;;11.03;44.98
21433;BME280;18592;49.708;10.900;2023-04-08T08:29:24;99101.59;;;11.06;44.84
21433;BME280;18592;49.708;10.900;2023-04-08T08:31:25;99093.44;;;11.06;45.12
21433;BME280;18592;49.708;10.900;2023-04-08T08:33:27;99102.22;;;11.08;45.00
21433;BME280;18592;49.708;10.900;2023-04-08T08:35:29;99110.41;;;11.08;45.05
21433;BME280;18592;49.708;10.900;2023-04-08T08:37:31;99100.06;;;11.10;45.17
21433;BME280;18592;49.708;10.900;2023-04-08T08:39:32;99108.25;;;11.10;45.61
21433;BME280;18592;49.708;10.900;2023-04-08T08:41:34;99100.19;;;11.15;45.41
21433;BME280;18592;49.708;10.900;2023-04-08T08:43:37;99102.44;;;11.18;45.12
21433;BME280;18592;49.708;10.900;2023-04-08T08:45:39;99104.31;;;11.17;45.46
21433;BME280;18592;49.708;10.900;2023-04-08T08:47:43;99105.16;;;11.18;45.34
21433;BME280;18592;49.708;10.900;2023-04-08T08:49:51;99106.06;;;11.23;45.13
21433;BME280;18592;49.708;10.900;2023-04-08T08:51:54;99107.75;;;11.24;45.24
21433;BME280;18592;49.708;10.900;2023-04-08T08:53:56;99106.44;;;11.27;45.06
21433;BME280;18592;49.708;10.900;2023-04-08T08:55:57;99111.31;;;11.25;45.44
21433;BME280;18592;49.708;10.900;2023-04-08T08:58:01;99117.34;;;11.27;45.17
21433;BME280;18592;49.708;10.900;2023-04-08T09:00:03;99122.31;;;11.30;45.14
21433;BME280;18592;49.708;10.900;2023-04-08T09:02:25;99127.53;;;11.31;45.39
21433;BME280;18592;49.708;10.900;2023-04-08T09:04:28;99119.34;;;11.31;45.50
21433;BME280;18592;49.708;10.900;2023-04-08T09:06:30;99123.84;;;11.37;45.43
21433;BME280;18592;49.708;10.900;2023-04-08T09:08:36;99128.56;;;11.42;45.27
21433;BME280;18592;49.708;10.900;2023-04-08T09:10:37;99128.09;;;11.45;45.19
21433;BME280;18592;49.708;10.900;2023-04-08T09:12:53;99131.66;;;11.45;45.45
21433;BME280;18592;49.708;10.900;2023-04-08T09:15:08;99124.28;;;11.46;45.38
21433;BME280;18592;49.708;10.900;2023-04-08T09:17:10;99126.53;;;11.49;45.18
21433;BME280;18592;49.708;10.900;2023-04-08T09:19:12;99134.72;;;11.49;45.63
21433;BME280;18592;49.708;10.900;2023-04-08T09:21:18;99132.81;;;11.49;45.53
21433;BME280;18592;49.708;10.900;2023-04-08T09:23:40;99127.72;;;11.53;46.14
21433;BME280;18592;49.708;10.900;2023-04-08T09:25:45;99126.03;;;11.52;45.39
21433;BME280;18592;49.708;10.900;2023-04-08T09:27:46;99123.41;;;11.57;45.58
21433;BME280;18592;49.708;10.900;2023-04-08T09:29:48;99127.72;;;11.53;45.68
21433;BME280;18592;49.708;10.900;2023-04-08T09:31:54;99137.53;;;11.54;46.06
21433;BME280;18592;49.708;10.900;2023-04-08T09:34:17;99131.84;;;11.56;46.09
21433;BME280;18592;49.708;10.900;2023-04-08T09:36:21;99128.63;;;11.59;45.80
21433;BME280;18592;49.708;10.900;2023-04-08T09:38:23;99129.44;;;11.59;45.81
21433;BME280;18592;49.708;10.900;2023-04-08T09:40:26;99136.31;;;11.62;45.81
21433;BME280;18592;49.708;10.900;2023-04-08T09:42:28;99136.69;;;11.65;45.76
21433;BME280;18592;49.708;10.900;2023-04-08T09:44:31;99136.69;;;11.65;46.48
21433;BME280;18592;49.708;10.900;2023-04-08T09:51:04;99136.66;;;11.77;45.40
21433;BME280;18592;49.708;10.900;2023-04-08T09:53:12;99140.78;;;11.79;46.64
21433;BME280;18592;49.708;10.900;2023-04-08T09:55:16;99137.84;;;11.81;45.85
21433;BME280;18592;49.708;10.900;2023-04-08T09:57:44;99136.75;;;11.82;46.33
21433;BME280;18592;49.708;10.900;2023-04-08T10:00:08;99142.22;;;11.82;46.47
21433;BME280;18592;49.708;10.900;2023-04-08T10:02:16;99136.53;;;11.83;45.98
21433;BME280;18592;49.708;10.900;2023-04-08T10:04:21;99140.41;;;11.87;45.99
21433;BME280;18592;49.708;10.900;2023-04-08T10:06:27;99138.03;;;11.91;46.05
21433;BME280;18592;49.708;10.900;2023-04-08T10:08:30;99150.38;;;11.93;46.13
21433;BME280;18592;49.708;10.900;2023-04-08T10:10:34;99138.69;;;11.98;45.83
21433;BME280;18592;49.708;10.900;2023-04-08T10:12:37;99145.09;;;12.03;45.83
21433;BME280;18592;49.708;10.900;2023-04-08T10:14:39;99144.69;;;12.12;45.82
21433;BME280;18592;49.708;10.900;2023-04-08T10:16:43;99140.63;;;12.14;46.10
21433;BME280;18592;49.708;10.900;2023-04-08T10:18:45;99140.94;;;12.18;45.70
21433;BME280;18592;49.708;10.900;2023-04-08T10:20:47;99140.19;;;12.22;45.91
21433;BME280;18592;49.708;10.900;2023-04-08T10:22:52;99141.97;;;12.28;45.93
21433;BME280;18592;49.708;10.900;2023-04-08T10:27:38;99133.00;;;12.33;46.18
21433;BME280;18592;49.708;10.900;2023-04-08T10:29:41;99142.97;;;12.39;45.94
21433;BME280;18592;49.708;10.900;2023-04-08T10:31:49;99134.84;;;12.44;45.79
21433;BME280;18592;49.708;10.900;2023-04-08T10:33:51;99139.31;;;12.50;45.94
21433;BME280;18592;49.708;10.900;2023-04-08T10:35:55;99141.06;;;12.56;46.02
21433;BME280;18592;49.708;10.900;2023-04-08T10:38:00;99139.97;;;12.57;45.81
21433;BME280;18592;49.708;10.900;2023-04-08T10:40:03;99140.56;;;12.59;45.68
21433;BME280;18592;49.708;10.900;2023-04-08T10:42:07;99142.28;;;12.65;45.96
21433;BME280;18592;49.708;10.900;2023-04-08T10:44:15;99138.22;;;12.67;45.91
21433;BME280;18592;49.708;10.900;2023-04-08T10:46:20;99134.97;;;12.70;45.57
21433;BME280;18592;49.708;10.900;2023-04-08T10:48:24;99128.50;;;12.77;45.55
21433;BME280;18592;49.708;10.900;2023-04-08T10:50:26;99133.22;;;12.81;45.70
21433;BME280;18592;49.708;10.900;2023-04-08T10:52:27;99130.00;;;12.84;45.50
21433;BME280;18592;49.708;10.900;2023-04-08T10:54:29;99123.19;;;12.87;45.40
21433;BME280;18592;49.708;10.900;2023-04-08T10:56:44;99124.25;;;12.86;45.77
21433;BME280;18592;49.708;10.900;2023-04-08T10:58:48;99122.69;;;12.90;45.50